Aviation Digital Data Service (ADDS)

Output produced by METARs form (1350 UTC 21 August 2019)
found at http://www.aviationweather.gov/metar/data/
 
Forecast for: DIAP (ABIDJAN/PORT BOU, CI)
Text: TAF DIAP 211100Z 2112/2218 18010KT 8000 SCT012 BKN040
Forecast period: 1200 UTC 21 August 2019 to 1800 UTC 22 August 2019
Forecast type: FROM: standard forecast or significant change
Winds: from the S (180 degrees) at 12 MPH (10 knots; 5.1 m/s)
Visibility: 5 miles (8 km)
Ceiling: 4000 feet AGL
Clouds: scattered clouds at 1200 feet AGL
broken clouds at 4000 feet AGL
Weather: no significant weather forecast for this period
Text: TEMPO 2205/2208 BKN012
Forecast period: 0500 to 0800 UTC 22 August 2019
Forecast type: TEMPORARY: The following changes expected for less than half the time period
Visibility: missing
Ceiling: 1200 feet AGL
Clouds: broken clouds at 1200 feet AGL
Weather: no significant weather forecast for this period